Time;durP1;ratioP1;P1;durP2;ratioP2;P2;SDS_P1;SDS_P2;PMS_P1;PMS_P2;Temp;Humidity;BMP_temperature;BMP_pressure;BME280_temperature;BME280_humidity;BME280_pressure;Samples;Min_cycle;Max_cycle;Signal;HPM_P1;HPM_P2
2024/02/14 00:04:56;;;;;;;54.00;28.10;;;;;;;2.75;100.00;99563.27;273506;1272;22179;-86
2024/02/14 00:27:19;;;;;;;59.60;27.90;;;;;;;2.75;100.00;99578.02;273787;1268;22357;-85
2024/02/14 00:42:21;;;;;;;57.40;29.40;;;;;;;2.74;100.00;99586.17;273752;1267;22203;-86
2024/02/14 00:48:23;;;;;;;54.80;27.50;;;;;;;2.79;100.00;99591.84;273822;1267;22219;-86
2024/02/14 00:54:50;;;;;;;52.40;27.30;;;;;;;2.79;100.00;99588.80;273710;1269;22217;-86
2024/02/14 01:08:41;;;;;;;55.80;28.70;;;;;;;2.78;100.00;99596.25;273958;1270;22288;-85
2024/02/14 01:14:43;;;;;;;48.80;26.60;;;;;;;2.75;100.00;99606.63;273799;1267;23339;-86
2024/02/14 01:35:50;;;;;;;47.50;24.90;;;;;;;2.68;100.00;99605.54;273632;1269;22247;-86
2024/02/14 01:42:21;;;;;;;47.90;22.60;;;;;;;2.65;100.00;99601.92;273687;1267;22216;-86
2024/02/14 01:48:22;;;;;;;47.30;23.90;;;;;;;2.67;100.00;99602.89;273713;1269;22544;-86
2024/02/14 02:02:07;;;;;;;47.90;23.20;;;;;;;2.71;100.00;99595.22;272118;1267;23773;-86
2024/02/14 02:36:41;;;;;;;64.70;31.90;;;;;;;2.63;100.00;99594.13;270442;1270;87322;-86
2024/02/14 02:43:30;;;;;;;63.20;32.30;;;;;;;2.64;100.00;99591.21;272198;1270;22203;-86
2024/02/14 02:49:32;;;;;;;60.80;32.50;;;;;;;2.65;100.00;99589.87;267508;1270;6411760;-86
2024/02/14 03:02:44;;;;;;;65.30;34.90;;;;;;;2.60;100.00;99597.83;273021;1270;22402;-86
2024/02/14 03:09:17;;;;;;;62.80;33.40;;;;;;;2.56;100.00;99605.07;273365;1278;22228;-86
2024/02/14 03:15:46;;;;;;;61.80;31.30;;;;;;;2.48;100.00;99609.31;273469;1270;22219;-86
2024/02/14 03:21:50;;;;;;;60.80;31.60;;;;;;;2.45;100.00;99613.17;273672;1277;22345;-86
2024/02/14 03:28:14;;;;;;;63.80;33.10;;;;;;;2.43;100.00;99612.84;270998;1270;24573;-86
2024/02/14 03:35:00;;;;;;;64.80;34.10;;;;;;;2.40;100.00;99614.88;273411;1277;22296;-86
2024/02/14 03:41:10;;;;;;;61.90;29.60;;;;;;;2.36;100.00;99623.11;273625;1270;22203;-86
2024/02/14 03:47:32;;;;;;;58.30;29.60;;;;;;;2.33;100.00;99632.52;273142;1274;22220;-86
2024/02/14 03:53:34;;;;;;;66.70;32.50;;;;;;;2.30;100.00;99630.02;273573;1270;22260;-86
2024/02/14 03:59:39;;;;;;;52.10;26.70;;;;;;;2.23;100.00;99624.63;273154;1270;22273;-86
2024/02/14 04:06:27;;;;;;;56.10;28.60;;;;;;;2.18;100.00;99630.36;273376;1273;22176;-86
2024/02/14 04:13:32;;;;;;;56.70;29.60;;;;;;;2.12;100.00;99626.96;273698;1268;22344;-86
2024/02/14 04:19:36;;;;;;;56.40;26.20;;;;;;;2.08;100.00;99633.23;270923;1270;22563;-85
2024/02/14 04:25:41;;;;;;;60.10;27.70;;;;;;;2.01;100.00;99638.81;272168;1270;22223;-86
2024/02/14 04:32:01;;;;;;;62.10;31.40;;;;;;;1.98;100.00;99643.64;273410;1277;22707;-86
2024/02/14 04:38:05;;;;;;;60.60;30.30;;;;;;;1.93;100.00;99643.91;269464;1270;22554;-86
2024/02/14 04:44:48;;;;;;;61.80;31.10;;;;;;;1.92;100.00;99646.70;273315;1275;22206;-85
2024/02/14 04:52:32;;;;;;;;;;;;;;;1.70;100.00;99650.98;273277;1270;22442;-86
2024/02/14 04:59:19;;;;;;;76.20;32.80;;;;;;;1.49;100.00;99647.67;272721;1268;23025;-86
2024/02/14 05:05:21;;;;;;;80.50;38.30;;;;;;;1.37;100.00;99640.08;271901;1270;22546;-87
2024/02/14 05:11:23;;;;;;;81.30;39.10;;;;;;;1.26;100.00;99643.60;269961;1262;22632;-86
2024/02/14 05:18:06;;;;;;;74.70;35.70;;;;;;;1.07;100.00;99658.94;272881;1262;22216;-86
2024/02/14 05:25:11;;;;;;;75.90;39.20;;;;;;;1.00;100.00;99661.31;273459;1273;22265;-86
2024/02/14 05:32:05;;;;;;;79.90;39.40;;;;;;;0.94;100.00;99660.24;273617;1270;22271;-85
2024/02/14 05:39:26;;;;;;;87.00;43.00;;;;;;;0.86;100.00;99658.48;273422;1270;22261;-85
2024/02/14 05:45:53;;;;;;;84.40;42.70;;;;;;;0.72;100.00;99663.04;272364;1274;22529;-86
2024/02/14 05:51:55;;;;;;;89.50;41.40;;;;;;;0.58;100.00;99671.56;270748;1270;22547;-85
2024/02/14 05:57:59;;;;;;;90.60;45.80;;;;;;;0.48;100.00;99673.33;270179;1269;23315;-86
2024/02/14 06:05:09;;;;;;;86.50;42.60;;;;;;;0.43;100.00;99675.13;270512;1271;22279;-86
2024/02/14 06:11:25;;;;;;;81.30;40.80;;;;;;;0.38;100.00;99678.82;271873;1270;23517;-85
2024/02/14 06:18:07;;;;;;;73.50;38.80;;;;;;;0.36;100.00;99684.38;273130;1271;22390;-86
2024/02/14 06:25:06;;;;;;;88.60;39.90;;;;;;;0.27;100.00;99681.61;273484;1272;22246;-85
2024/02/14 06:31:09;;;;;;;;;;;;;;;0.24;100.00;99681.98;273013;1270;22397;-85
2024/02/14 06:37:31;;;;;;;76.60;37.20;;;;;;;0.24;100.00;99683.31;271665;1270;22214;-85
2024/02/14 06:43:39;;;;;;;75.90;39.00;;;;;;;0.18;100.00;99687.23;272899;1270;22208;-85
2024/02/14 06:50:55;;;;;;;80.50;39.40;;;;;;;0.24;100.00;99689.40;273531;1272;23350;-86
2024/02/14 06:57:38;;;;;;;98.20;50.20;;;;;;;0.56;100.00;99692.66;273355;1273;22693;-86
2024/02/14 07:04:38;;;;;;;103.50;55.60;;;;;;;1.03;100.00;99689.74;273664;1277;22393;-86
2024/02/14 07:11:02;;;;;;;91.10;47.70;;;;;;;1.45;100.00;99693.46;273167;1270;23917;-85
2024/02/14 07:17:04;;;;;;;112.90;56.90;;;;;;;1.80;100.00;99702.66;273126;1262;22197;-86
2024/02/14 07:23:06;;;;;;;103.70;52.80;;;;;;;2.08;100.00;99711.04;271819;1271;22618;-87
2024/02/14 07:29:09;;;;;;;84.60;42.00;;;;;;;2.38;100.00;99709.75;271116;1270;22562;-87
2024/02/14 07:35:11;;;;;;;57.40;30.10;;;;;;;2.59;100.00;99705.77;273020;1263;22536;-86
2024/02/14 07:41:34;;;;;;;45.80;25.70;;;;;;;2.93;100.00;99702.88;273312;1270;23775;-86
2024/02/14 07:47:49;;;;;;;48.00;24.80;;;;;;;3.69;100.00;99695.78;273070;1273;22186;-86
2024/02/14 07:54:32;;;;;;;56.30;28.70;;;;;;;4.24;100.00;99698.45;273398;1270;22213;-87
2024/02/14 08:01:35;;;;;;;54.30;25.90;;;;;;;4.74;100.00;99705.31;273386;1270;22176;-87
2024/02/14 08:07:44;;;;;;;37.60;20.80;;;;;;;5.44;100.00;99699.55;273352;1270;22961;-87
2024/02/14 08:13:48;;;;;;;41.10;21.30;;;;;;;5.90;100.00;99699.24;273406;1269;22260;-86
2024/02/14 08:20:13;;;;;;;39.00;21.40;;;;;;;6.38;100.00;99696.59;271812;1270;22283;-87
2024/02/14 08:26:53;;;;;;;35.10;17.10;;;;;;;6.94;100.00;99692.17;271780;1270;22227;-87
2024/02/14 08:32:58;;;;;;;28.20;16.30;;;;;;;7.54;100.00;99693.42;273564;1269;22271;-87
2024/02/14 08:39:02;;;;;;;27.80;15.00;;;;;;;8.04;100.00;99691.30;273176;1275;22360;-88
2024/02/14 08:45:04;;;;;;;21.20;11.90;;;;;;;8.43;100.00;99694.34;273196;1272;22514;-87
2024/02/14 08:51:27;;;;;;;18.90;10.90;;;;;;;8.95;100.00;99695.66;273357;1272;22468;-88
2024/02/14 09:05:24;;;;;;;28.40;16.30;;;;;;;10.01;100.00;99691.76;273071;1271;22405;-89
2024/02/14 09:12:09;;;;;;;22.60;8.90;;;;;;;10.70;99.92;99688.27;273540;1274;22295;-88
2024/02/14 09:18:11;;;;;;;14.20;5.30;;;;;;;10.83;99.16;99683.25;272489;1272;22174;-88
2024/02/14 09:24:56;;;;;;;7.90;4.30;;;;;;;11.15;96.52;99673.00;273273;1276;22316;-88
2024/02/14 09:31:31;;;;;;;3.20;1.40;;;;;;;11.85;94.81;99675.64;273613;1272;22199;-89
2024/02/14 09:37:37;;;;;;;1.60;1.00;;;;;;;12.22;93.90;99679.54;273383;1258;23276;-89
2024/02/14 09:43:43;;;;;;;3.40;1.60;;;;;;;12.33;90.35;99684.56;271047;1270;22412;-88
2024/02/14 09:49:53;;;;;;;3.40;1.30;;;;;;;12.31;88.21;99686.11;271931;1270;22300;-89
2024/02/14 09:55:56;;;;;;;3.90;1.20;;;;;;;12.35;87.96;99677.63;272624;1270;23491;-89
2024/02/14 10:01:58;;;;;;;2.00;0.80;;;;;;;12.34;83.75;99676.13;272948;1270;22929;-88
2024/02/14 10:08:51;;;;;;;2.80;1.10;;;;;;;12.73;81.43;99673.91;273223;1274;23520;-89
2024/02/14 10:14:55;;;;;;;3.60;1.70;;;;;;;13.11;79.29;99671.58;271610;1270;23559;-88
2024/02/14 10:20:57;;;;;;;4.80;1.70;;;;;;;13.56;79.40;99670.51;272537;1270;23040;-88
2024/02/14 10:26:59;;;;;;;5.60;1.70;;;;;;;13.84;76.89;99663.69;272556;1270;22222;-89
2024/02/14 10:33:03;;;;;;;4.20;2.00;;;;;;;14.01;76.56;99654.33;272773;1270;23395;-90
2024/02/14 10:39:07;;;;;;;4.90;1.80;;;;;;;14.15;74.48;99647.83;272647;1270;22432;-89
2024/02/14 10:45:09;;;;;;;7.30;2.50;;;;;;;14.02;71.95;99646.39;271930;1270;22508;-89
2024/02/14 10:51:15;;;;;;;3.10;1.80;;;;;;;13.95;70.70;99643.27;270368;1269;23122;-91
2024/02/14 10:57:17;;;;;;;4.40;1.90;;;;;;;13.45;71.92;99642.50;271920;1270;22557;-88
2024/02/14 11:03:19;;;;;;;4.10;2.00;;;;;;;12.59;72.27;99644.21;271540;1270;22189;-89
2024/02/14 11:09:43;;;;;;;3.90;1.70;;;;;;;12.23;71.04;99638.46;273396;1275;23223;-88
2024/02/14 11:15:46;;;;;;;3.10;1.30;;;;;;;11.92;69.29;99631.71;272666;1270;22219;-87
2024/02/14 11:21:50;;;;;;;5.70;2.30;;;;;;;11.97;68.03;99621.14;272784;1270;22359;-89
2024/02/14 11:27:52;;;;;;;5.40;1.70;;;;;;;12.18;69.12;99612.75;272723;1270;22650;-88
2024/02/14 11:34:34;;;;;;;6.20;1.70;;;;;;;12.05;65.57;99608.40;272981;1270;22213;-89
2024/02/14 11:41:49;;;;;;;3.80;1.50;;;;;;;11.94;65.04;99598.44;273143;1272;23192;-88
2024/02/14 11:47:52;;;;;;;5.50;1.50;;;;;;;11.76;62.72;99587.56;272857;1269;22412;-89
2024/02/14 11:53:54;;;;;;;4.60;1.60;;;;;;;11.44;62.79;99583.80;272976;1269;22293;-89
2024/02/14 11:59:57;;;;;;;3.40;1.90;;;;;;;11.22;61.76;99587.73;272107;1271;22256;-88
2024/02/14 12:06:43;;;;;;;4.40;1.90;;;;;;;11.07;62.12;99584.72;272548;1270;22262;-88
2024/02/14 12:12:46;;;;;;;5.40;2.60;;;;;;;10.99;62.45;99585.75;273054;1270;22472;-88
2024/02/14 12:18:48;;;;;;;3.10;2.00;;;;;;;10.88;61.20;99583.58;272840;1269;22985;-88
2024/02/14 12:25:28;;;;;;;9.40;2.60;;;;;;;10.59;59.94;99575.17;272747;1270;22263;-88
2024/02/14 12:31:31;;;;;;;5.50;2.10;;;;;;;10.18;58.17;99567.42;271991;1270;23733;-87
2024/02/14 12:37:33;;;;;;;5.20;2.40;;;;;;;9.85;58.28;99566.20;271077;1270;22559;-88
2024/02/14 12:43:36;;;;;;;5.50;2.70;;;;;;;9.82;58.53;99564.16;272376;1270;22887;-89
2024/02/14 12:49:45;;;;;;;6.60;2.50;;;;;;;9.76;57.82;99563.48;272796;1270;22224;-88
2024/02/14 12:56:05;;;;;;;5.10;2.30;;;;;;;9.62;57.75;99563.16;271694;1270;23075;-89
2024/02/14 13:02:07;;;;;;;6.30;2.40;;;;;;;9.62;57.80;99562.38;272420;1270;23400;-89
2024/02/14 13:08:11;;;;;;;5.60;2.80;;;;;;;9.56;57.60;99566.05;270467;1270;22550;-87
2024/02/14 13:15:03;;;;;;;8.20;2.50;;;;;;;9.52;58.06;99565.98;271247;1273;22587;-86
2024/02/14 13:21:07;;;;;;;5.00;2.30;;;;;;;9.59;57.97;99563.15;269566;1274;22239;-88
2024/02/14 13:27:14;;;;;;;5.90;2.20;;;;;;;9.62;58.48;99559.17;272675;1262;22237;-87
2024/02/14 13:33:29;;;;;;;5.80;3.00;;;;;;;9.64;58.78;99555.54;272401;1273;22237;-88
2024/02/14 13:39:51;;;;;;;4.20;2.80;;;;;;;9.65;58.47;99547.36;272563;1275;23549;-86
2024/02/14 13:46:11;;;;;;;5.50;2.80;;;;;;;9.62;57.76;99546.91;273220;1269;22287;-87
2024/02/14 13:52:34;;;;;;;11.00;4.30;;;;;;;9.63;57.72;99545.20;272175;1270;23363;-87
2024/02/14 13:58:54;;;;;;;6.20;3.60;;;;;;;9.47;58.23;99539.53;272594;1270;22232;-87
2024/02/14 14:04:56;;;;;;;6.30;3.50;;;;;;;9.31;57.78;99537.72;271567;1270;22232;-87
2024/02/14 14:10:59;;;;;;;5.60;3.30;;;;;;;9.17;57.61;99538.87;272082;1270;22228;-88
2024/02/14 14:17:01;;;;;;;8.20;3.60;;;;;;;9.11;57.52;99535.27;272826;1270;22593;-88
2024/02/14 14:23:06;;;;;;;6.90;3.20;;;;;;;9.02;57.98;99533.95;270812;1270;23428;-88
2024/02/14 14:29:28;;;;;;;6.60;3.40;;;;;;;8.87;58.18;99536.85;272845;1270;22208;-88
2024/02/14 14:35:35;;;;;;;12.40;3.80;;;;;;;8.75;57.81;99536.81;273268;1271;22325;-88
2024/02/14 14:42:17;;;;;;;18.80;6.60;;;;;;;8.64;58.08;99536.85;273214;1274;22212;-88
2024/02/14 14:48:30;;;;;;;13.60;5.50;;;;;;;8.53;58.19;99534.58;266543;1270;8815022;-88
2024/02/14 14:54:33;;;;;;;8.70;4.30;;;;;;;8.44;58.47;99530.66;271593;1270;22231;-85
2024/02/14 15:00:35;;;;;;;7.60;3.90;;;;;;;8.39;58.85;99530.68;272527;1259;23506;-87
2024/02/14 15:06:54;;;;;;;9.20;4.20;;;;;;;8.34;59.12;99529.29;272280;1272;23028;-87
2024/02/14 15:13:06;;;;;;;7.50;3.80;;;;;;;8.31;59.57;99531.32;272786;1270;24245;-87
2024/02/14 15:19:29;;;;;;;7.40;4.00;;;;;;;8.32;59.82;99535.77;271133;1270;22559;-87
2024/02/14 15:25:31;;;;;;;5.80;3.70;;;;;;;8.33;59.88;99536.12;273047;1276;22213;-88
2024/02/14 15:38:18;;;;;;;8.40;3.40;;;;;;;8.26;60.69;99525.48;272665;1270;23511;-88
2024/02/14 15:44:41;;;;;;;13.80;6.50;;;;;;;8.18;60.72;99524.59;271585;1270;22632;-87
2024/02/14 15:51:03;;;;;;;10.20;5.10;;;;;;;8.06;60.92;99523.24;271958;1272;22218;-87
2024/02/14 15:57:12;;;;;;;13.50;4.20;;;;;;;7.90;60.83;99522.30;273273;1272;22278;-87
2024/02/14 16:03:39;;;;;;;9.40;3.30;;;;;;;7.72;61.06;99522.36;272185;1275;22187;-88
2024/02/14 16:09:56;;;;;;;;;;;;;;;7.44;62.88;99524.06;272512;1269;22558;-87
2024/02/14 16:16:19;;;;;;;11.70;5.30;;;;;;;7.15;64.02;99532.85;273068;1272;22181;-87
2024/02/14 16:22:40;;;;;;;15.30;5.80;;;;;;;6.91;63.92;99536.44;272877;1273;22145;-87
2024/02/14 16:28:46;;;;;;;26.70;11.00;;;;;;;6.64;64.51;99536.89;273383;1275;22213;-86
2024/02/14 16:35:08;;;;;;;20.30;9.00;;;;;;;6.38;65.26;99542.89;273624;1277;22177;-87
2024/02/14 16:41:10;;;;;;;16.80;7.50;;;;;;;6.11;66.07;99555.19;273124;1275;22278;-87
2024/02/14 16:47:21;;;;;;;17.50;9.20;;;;;;;5.86;66.71;99566.41;271844;1272;22334;-88
2024/02/14 16:53:24;;;;;;;22.50;10.30;;;;;;;5.58;67.55;99571.64;273355;1272;22216;-85
2024/02/14 17:00:07;;;;;;;15.00;7.90;;;;;;;5.32;68.16;99568.19;273336;1275;22258;-86
2024/02/14 17:06:46;;;;;;;22.70;10.60;;;;;;;5.03;68.72;99568.23;265387;1273;10001981;-86
2024/02/14 17:13:16;;;;;;;25.20;10.70;;;;;;;4.88;69.35;99568.91;273436;1275;22200;-86
2024/02/14 17:19:40;;;;;;;18.10;9.50;;;;;;;4.74;70.04;99569.70;273334;1277;22378;-86
2024/02/14 17:25:43;;;;;;;21.50;10.20;;;;;;;4.55;70.26;99575.48;273141;1271;22364;-86
2024/02/14 17:33:10;;;;;;;24.00;12.30;;;;;;;4.33;70.64;99571.07;272382;1278;22569;-86
2024/02/14 17:39:38;;;;;;;29.50;12.30;;;;;;;4.14;71.40;99565.88;272465;1281;22554;-87
2024/02/14 17:46:01;;;;;;;53.30;20.70;;;;;;;3.97;71.81;99570.11;272602;1281;22237;-86
2024/02/14 17:52:10;;;;;;;60.80;25.80;;;;;;;3.72;72.39;99575.01;272499;1275;22746;-86
2024/02/14 17:58:16;;;;;;;47.40;22.20;;;;;;;3.58;73.49;99573.00;272172;1273;22369;-85
2024/02/14 18:05:07;;;;;;;40.60;17.80;;;;;;;3.49;74.80;99570.88;273268;1275;22217;-86
2024/02/14 18:11:31;;;;;;;29.90;15.00;;;;;;;3.30;75.61;99575.27;272137;1283;22378;-86
2024/02/14 18:17:35;;;;;;;36.80;17.20;;;;;;;3.14;76.27;99575.50;271985;1277;22268;-86
2024/02/14 18:23:37;;;;;;;41.30;18.10;;;;;;;3.01;76.44;99572.32;271871;1279;22211;-85
2024/02/14 18:30:22;;;;;;;51.10;21.50;;;;;;;2.87;76.77;99568.43;272964;1272;22230;-87
2024/02/14 18:36:44;;;;;;;58.60;23.90;;;;;;;2.73;77.07;99567.66;273586;1270;22202;-86
2024/02/14 18:42:47;;;;;;;38.30;19.70;;;;;;;2.63;78.07;99563.84;273380;1271;22900;-86
2024/02/14 18:48:54;;;;;;;45.10;21.40;;;;;;;2.60;79.10;99560.75;273045;1270;23775;-84
2024/02/14 18:54:57;;;;;;;51.20;24.30;;;;;;;2.52;79.43;99560.73;272480;1270;25348;-86
2024/02/14 19:01:00;;;;;;;53.00;24.90;;;;;;;2.46;80.68;99564.63;272783;1272;23025;-86
2024/02/14 19:07:07;;;;;;;58.40;24.60;;;;;;;2.48;81.02;99570.62;273304;1264;22331;-86
2024/02/14 19:13:57;;;;;;;59.60;26.70;;;;;;;2.51;81.57;99574.70;273059;1261;23408;-85
2024/02/14 19:20:08;;;;;;;47.10;23.40;;;;;;;2.58;82.70;99581.02;273493;1270;22392;-86
2024/02/14 19:26:19;;;;;;;47.40;21.20;;;;;;;2.60;83.36;99584.47;273432;1273;22210;-86
2024/02/14 19:32:43;;;;;;;62.40;27.30;;;;;;;2.61;83.62;99586.61;273582;1277;22259;-86
2024/02/14 19:39:06;;;;;;;62.40;28.60;;;;;;;2.64;83.73;99580.77;273546;1277;22181;-86
2024/02/14 19:45:09;;;;;;;81.20;28.80;;;;;;;2.67;84.53;99581.55;273306;1276;22362;-86
2024/02/14 19:51:11;;;;;;;65.30;29.20;;;;;;;2.69;85.07;99583.83;272781;1269;22173;-86
2024/02/14 19:57:16;;;;;;;61.90;27.30;;;;;;;2.70;85.53;99586.77;273408;1269;22178;-86
2024/02/14 20:03:22;;;;;;;83.30;38.40;;;;;;;2.74;86.48;99585.03;273103;1260;22210;-86
2024/02/14 20:09:25;;;;;;;84.20;37.90;;;;;;;2.79;86.12;99577.84;273527;1273;22176;-86
2024/02/14 20:15:52;;;;;;;76.20;35.10;;;;;;;2.82;85.96;99577.92;273054;1277;22367;-85
2024/02/14 20:21:57;;;;;;;;;;;;;;;2.91;87.18;99580.92;273371;1272;22448;-86
2024/02/14 20:28:20;;;;;;;80.40;33.40;;;;;;;2.93;87.65;99582.42;273460;1257;22213;-85
2024/02/14 20:34:57;;;;;;;71.10;30.70;;;;;;;2.94;87.76;99584.36;272374;1270;22535;-86
2024/02/14 20:40:59;;;;;;;66.70;32.40;;;;;;;2.98;87.78;99590.79;271985;1270;22543;-86
2024/02/14 20:48:01;;;;;;;71.80;33.70;;;;;;;3.00;88.29;99588.45;271319;1270;22510;-86
2024/02/14 20:55:04;;;;;;;77.00;35.10;;;;;;;2.98;88.32;99581.45;273416;1269;22283;-86
2024/02/14 21:01:06;;;;;;;73.40;33.90;;;;;;;2.93;88.41;99579.63;271268;1270;22637;-85
2024/02/14 21:15:00;;;;;;;64.50;33.30;;;;;;;2.95;89.43;99576.12;270847;1269;22567;-86
2024/02/14 21:21:03;;;;;;;53.00;29.50;;;;;;;2.97;90.02;99574.19;271808;1270;22175;-86
2024/02/14 21:27:31;;;;;;;61.50;31.30;;;;;;;2.98;90.57;99572.34;273237;1273;22211;-85
2024/02/14 21:33:57;;;;;;;74.20;35.30;;;;;;;2.99;90.74;99568.75;273643;1272;22373;-86
2024/02/14 21:40:01;;;;;;;73.60;34.60;;;;;;;3.00;90.85;99563.70;273598;1269;23112;-86
2024/02/14 21:46:03;;;;;;;88.90;39.40;;;;;;;3.05;91.45;99562.30;273347;1275;22213;-86
2024/02/14 21:52:06;;;;;;;80.00;35.80;;;;;;;3.05;91.50;99561.34;273399;1271;22673;-86
2024/02/14 21:58:57;;;;;;;77.10;36.00;;;;;;;3.02;91.51;99562.66;273380;1270;22254;-86
2024/02/14 22:05:21;;;;;;;63.70;32.60;;;;;;;3.03;91.64;99559.58;273684;1271;23531;-85
2024/02/14 22:11:49;;;;;;;68.70;31.90;;;;;;;3.02;91.63;99564.02;273732;1277;22324;-85
2024/02/14 22:25:06;;;;;;;56.10;28.40;;;;;;;3.07;92.59;99566.69;273458;1278;22280;-86
2024/02/14 22:31:08;;;;;;;;;;;;;;;3.12;92.70;99573.33;273481;1271;22438;-85
2024/02/14 22:37:11;;;;;;;52.50;26.00;;;;;;;3.15;93.49;99571.88;273440;1272;22255;-86
2024/02/14 22:43:36;;;;;;;56.90;28.30;;;;;;;3.24;94.27;99575.22;273702;1270;22221;-85
2024/02/14 22:49:45;;;;;;;51.00;26.70;;;;;;;3.31;94.56;99573.84;273704;1272;22209;-85
2024/02/14 22:56:11;;;;;;;50.10;25.30;;;;;;;3.36;95.05;99571.92;273712;1272;22195;-86
2024/02/14 23:02:43;;;;;;;48.60;26.80;;;;;;;3.40;95.27;99572.13;272901;1272;22550;-85
2024/02/14 23:08:46;;;;;;;49.50;24.90;;;;;;;3.44;96.06;99577.80;270366;1270;23270;-86
2024/02/14 23:14:52;;;;;;;50.60;26.20;;;;;;;3.46;96.34;99574.05;270164;1270;22555;-85
2024/02/14 23:21:35;;;;;;;57.60;26.80;;;;;;;3.50;96.87;99572.16;270379;1270;22188;-86
2024/02/14 23:28:00;;;;;;;55.70;27.90;;;;;;;3.53;97.32;99570.70;272446;1278;22242;-86
2024/02/14 23:34:01;;;;;;;67.00;32.20;;;;;;;3.54;96.92;99571.27;270913;1276;22432;-86
2024/02/14 23:40:12;;;;;;;67.60;32.90;;;;;;;3.56;97.07;99576.03;272114;1281;23036;-86
2024/02/14 23:46:55;;;;;;;69.90;34.20;;;;;;;3.57;96.67;99574.13;273386;1266;22398;-85
2024/02/14 23:53:42;;;;;;;78.20;38.60;;;;;;;3.52;96.53;99569.10;273508;1270;23379;-86
